sensor_id;sensor_type;location;lat;lon;timestamp;temperature;humidity
63202;DHT22;49296;48.188;11.566;2023-05-10T00:00:39;15.40;79.31
63202;DHT22;49296;48.188;11.566;2023-05-10T00:03:06;15.43;79.41
63202;DHT22;49296;48.188;11.566;2023-05-10T00:05:32;15.34;79.37
63202;DHT22;49296;48.188;11.566;2023-05-10T00:07:59;15.14;79.34
63202;DHT22;49296;48.188;11.566;2023-05-10T00:10:26;15.05;80.19
63202;DHT22;49296;48.188;11.566;2023-05-10T00:12:52;15.14;80.33
63202;DHT22;49296;48.188;11.566;2023-05-10T00:15:22;15.17;80.15
63202;DHT22;49296;48.188;11.566;2023-05-10T00:17:50;15.22;80.03
63202;DHT22;49296;48.188;11.566;2023-05-10T00:20:16;15.19;80.07
63202;DHT22;49296;48.188;11.566;2023-05-10T00:22:43;15.24;80.03
63202;DHT22;49296;48.188;11.566;2023-05-10T00:25:10;15.19;79.83
63202;DHT22;49296;48.188;11.566;2023-05-10T00:27:36;15.08;80.48
63202;DHT22;49296;48.188;11.566;2023-05-10T00:30:05;15.14;80.23
63202;DHT22;49296;48.188;11.566;2023-05-10T00:32:32;14.98;80.12
63202;DHT22;49296;48.188;11.566;2023-05-10T00:35:03;15.01;80.23
63202;DHT22;49296;48.188;11.566;2023-05-10T00:37:30;14.97;80.50
63202;DHT22;49296;48.188;11.566;2023-05-10T00:39:59;15.02;80.41
63202;DHT22;49296;48.188;11.566;2023-05-10T00:42:26;15.00;80.70
63202;DHT22;49296;48.188;11.566;2023-05-10T00:44:53;14.91;80.16
63202;DHT22;49296;48.188;11.566;2023-05-10T00:47:20;14.94;80.60
63202;DHT22;49296;48.188;11.566;2023-05-10T00:49:47;14.97;79.95
63202;DHT22;49296;48.188;11.566;2023-05-10T00:52:15;14.94;80.29
63202;DHT22;49296;48.188;11.566;2023-05-10T00:54:42;14.88;80.45
63202;DHT22;49296;48.188;11.566;2023-05-10T00:57:09;14.98;79.73
63202;DHT22;49296;48.188;11.566;2023-05-10T00:59:35;14.95;80.08
63202;DHT22;49296;48.188;11.566;2023-05-10T01:02:02;14.84;80.44
63202;DHT22;49296;48.188;11.566;2023-05-10T01:04:29;14.79;80.39
63202;DHT22;49296;48.188;11.566;2023-05-10T01:06:56;14.97;80.27
63202;DHT22;49296;48.188;11.566;2023-05-10T01:09:24;14.87;80.30
63202;DHT22;49296;48.188;11.566;2023-05-10T01:15:12;14.84;80.36
63202;DHT22;49296;48.188;11.566;2023-05-10T01:17:42;14.74;80.91
63202;DHT22;49296;48.188;11.566;2023-05-10T01:20:11;14.76;80.90
63202;DHT22;49296;48.188;11.566;2023-05-10T01:22:59;14.70;80.98
63202;DHT22;49296;48.188;11.566;2023-05-10T01:25:43;14.79;80.53
63202;DHT22;49296;48.188;11.566;2023-05-10T01:28:39;14.84;80.79
63202;DHT22;49296;48.188;11.566;2023-05-10T01:31:19;14.90;80.03
63202;DHT22;49296;48.188;11.566;2023-05-10T01:33:52;14.83;79.71
63202;DHT22;49296;48.188;11.566;2023-05-10T01:36:25;14.84;80.27
63202;DHT22;49296;48.188;11.566;2023-05-10T01:38:58;14.95;79.70
63202;DHT22;49296;48.188;11.566;2023-05-10T01:41:28;14.94;79.47
63202;DHT22;49296;48.188;11.566;2023-05-10T01:44:03;14.85;79.51
63202;DHT22;49296;48.188;11.566;2023-05-10T01:46:34;14.76;79.65
63202;DHT22;49296;48.188;11.566;2023-05-10T01:49:07;14.67;79.97
63202;DHT22;49296;48.188;11.566;2023-05-10T01:51:38;14.67;80.38
63202;DHT22;49296;48.188;11.566;2023-05-10T01:54:05;14.73;80.22
63202;DHT22;49296;48.188;11.566;2023-05-10T01:56:34;14.72;80.42
63202;DHT22;49296;48.188;11.566;2023-05-10T01:59:06;14.73;80.37
63202;DHT22;49296;48.188;11.566;2023-05-10T02:01:36;14.72;79.97
63202;DHT22;49296;48.188;11.566;2023-05-10T02:04:06;14.66;80.13
63202;DHT22;49296;48.188;11.566;2023-05-10T02:06:34;14.63;80.30
63202;DHT22;49296;48.188;11.566;2023-05-10T02:09:02;14.67;80.20
63202;DHT22;49296;48.188;11.566;2023-05-10T02:11:29;14.73;79.44
63202;DHT22;49296;48.188;11.566;2023-05-10T02:13:58;14.76;79.62
63202;DHT22;49296;48.188;11.566;2023-05-10T02:16:26;14.73;80.01
63202;DHT22;49296;48.188;11.566;2023-05-10T02:18:57;14.76;79.96
63202;DHT22;49296;48.188;11.566;2023-05-10T02:21:28;14.70;79.89
63202;DHT22;49296;48.188;11.566;2023-05-10T02:23:57;14.69;79.78
63202;DHT22;49296;48.188;11.566;2023-05-10T02:26:24;14.65;79.91
63202;DHT22;49296;48.188;11.566;2023-05-10T02:28:53;14.69;80.09
63202;DHT22;49296;48.188;11.566;2023-05-10T02:31:21;14.74;79.76
63202;DHT22;49296;48.188;11.566;2023-05-10T02:33:48;14.56;80.16
63202;DHT22;49296;48.188;11.566;2023-05-10T02:36:16;14.62;79.95
63202;DHT22;49296;48.188;11.566;2023-05-10T02:38:45;14.53;80.50
63202;DHT22;49296;48.188;11.566;2023-05-10T02:41:13;14.55;80.53
63202;DHT22;49296;48.188;11.566;2023-05-10T02:43:40;14.50;80.44
63202;DHT22;49296;48.188;11.566;2023-05-10T02:46:08;14.49;80.49
63202;DHT22;49296;48.188;11.566;2023-05-10T02:48:35;14.45;80.25
63202;DHT22;49296;48.188;11.566;2023-05-10T02:51:05;14.32;80.76
63202;DHT22;49296;48.188;11.566;2023-05-10T02:53:34;14.25;81.15
63202;DHT22;49296;48.188;11.566;2023-05-10T02:56:05;14.29;80.97
63202;DHT22;49296;48.188;11.566;2023-05-10T02:58:36;14.24;81.37
63202;DHT22;49296;48.188;11.566;2023-05-10T03:01:03;14.20;81.39
63202;DHT22;49296;48.188;11.566;2023-05-10T03:03:29;14.20;81.58
63202;DHT22;49296;48.188;11.566;2023-05-10T03:05:57;14.22;81.34
63202;DHT22;49296;48.188;11.566;2023-05-10T03:08:24;14.22;81.52
63202;DHT22;49296;48.188;11.566;2023-05-10T03:10:58;14.28;81.43
63202;DHT22;49296;48.188;11.566;2023-05-10T03:13:35;14.42;80.75
63202;DHT22;49296;48.188;11.566;2023-05-10T03:16:08;14.35;80.90
63202;DHT22;49296;48.188;11.566;2023-05-10T03:18:41;14.33;80.81
63202;DHT22;49296;48.188;11.566;2023-05-10T03:21:11;14.24;81.07
63202;DHT22;49296;48.188;11.566;2023-05-10T03:23:41;14.24;80.77
63202;DHT22;49296;48.188;11.566;2023-05-10T03:26:09;14.17;81.64
63202;DHT22;49296;48.188;11.566;2023-05-10T03:28:40;14.20;81.43
63202;DHT22;49296;48.188;11.566;2023-05-10T03:31:08;14.21;81.19
63202;DHT22;49296;48.188;11.566;2023-05-10T03:33:35;14.24;81.04
63202;DHT22;49296;48.188;11.566;2023-05-10T03:36:02;14.26;81.45
63202;DHT22;49296;48.188;11.566;2023-05-10T03:38:28;14.25;81.39
63202;DHT22;49296;48.188;11.566;2023-05-10T03:40:55;14.28;81.50
63202;DHT22;49296;48.188;11.566;2023-05-10T03:43:21;14.25;81.61
63202;DHT22;49296;48.188;11.566;2023-05-10T03:45:49;14.26;81.49
63202;DHT22;49296;48.188;11.566;2023-05-10T03:48:16;14.29;81.48
63202;DHT22;49296;48.188;11.566;2023-05-10T03:50:42;14.32;81.52
63202;DHT22;49296;48.188;11.566;2023-05-10T03:53:09;14.29;81.45
63202;DHT22;49296;48.188;11.566;2023-05-10T03:55:36;14.22;81.84
63202;DHT22;49296;48.188;11.566;2023-05-10T03:58:02;14.24;81.94
63202;DHT22;49296;48.188;11.566;2023-05-10T04:00:29;14.22;81.92
63202;DHT22;49296;48.188;11.566;2023-05-10T04:02:57;14.26;82.09
63202;DHT22;49296;48.188;11.566;2023-05-10T04:05:23;14.20;82.12
63202;DHT22;49296;48.188;11.566;2023-05-10T04:07:50;14.25;81.87
63202;DHT22;49296;48.188;11.566;2023-05-10T04:10:17;14.22;82.08
63202;DHT22;49296;48.188;11.566;2023-05-10T04:12:43;14.29;81.52
63202;DHT22;49296;48.188;11.566;2023-05-10T04:15:10;14.29;81.48
63202;DHT22;49296;48.188;11.566;2023-05-10T04:17:36;14.29;81.69
63202;DHT22;49296;48.188;11.566;2023-05-10T04:20:06;14.33;81.28
63202;DHT22;49296;48.188;11.566;2023-05-10T04:22:33;14.40;81.31
63202;DHT22;49296;48.188;11.566;2023-05-10T04:25:00;14.35;81.34
63202;DHT22;49296;48.188;11.566;2023-05-10T04:27:26;14.20;81.93
63202;DHT22;49296;48.188;11.566;2023-05-10T04:29:53;14.20;82.06
63202;DHT22;49296;48.188;11.566;2023-05-10T04:32:19;14.01;82.45
63202;DHT22;49296;48.188;11.566;2023-05-10T04:34:46;14.08;82.81
63202;DHT22;49296;48.188;11.566;2023-05-10T04:37:14;14.13;82.36
63202;DHT22;49296;48.188;11.566;2023-05-10T04:39:41;14.11;82.95
63202;DHT22;49296;48.188;11.566;2023-05-10T04:42:08;14.04;82.92
63202;DHT22;49296;48.188;11.566;2023-05-10T04:44:34;14.03;82.88
63202;DHT22;49296;48.188;11.566;2023-05-10T04:47:01;13.94;83.32
63202;DHT22;49296;48.188;11.566;2023-05-10T04:49:28;14.00;82.77
63202;DHT22;49296;48.188;11.566;2023-05-10T04:51:55;14.01;82.58
63202;DHT22;49296;48.188;11.566;2023-05-10T04:54:23;13.97;82.72
63202;DHT22;49296;48.188;11.566;2023-05-10T04:56:50;13.84;83.15
63202;DHT22;49296;48.188;11.566;2023-05-10T04:59:16;13.83;83.47
63202;DHT22;49296;48.188;11.566;2023-05-10T05:01:43;13.71;83.56
63202;DHT22;49296;48.188;11.566;2023-05-10T05:04:10;13.69;84.14
63202;DHT22;49296;48.188;11.566;2023-05-10T05:06:36;13.74;84.30
63202;DHT22;49296;48.188;11.566;2023-05-10T05:09:03;13.86;84.18
63202;DHT22;49296;48.188;11.566;2023-05-10T05:11:31;13.76;83.51
63202;DHT22;49296;48.188;11.566;2023-05-10T05:13:57;13.56;83.12
63202;DHT22;49296;48.188;11.566;2023-05-10T05:16:25;13.52;83.81
63202;DHT22;49296;48.188;11.566;2023-05-10T05:18:52;13.34;84.13
63202;DHT22;49296;48.188;11.566;2023-05-10T05:21:19;13.34;83.79
63202;DHT22;49296;48.188;11.566;2023-05-10T05:23:47;13.24;83.98
63202;DHT22;49296;48.188;11.566;2023-05-10T05:26:14;13.29;83.92
63202;DHT22;49296;48.188;11.566;2023-05-10T05:28:42;13.31;83.94
63202;DHT22;49296;48.188;11.566;2023-05-10T05:31:09;13.26;84.10
63202;DHT22;49296;48.188;11.566;2023-05-10T05:33:36;13.24;84.31
63202;DHT22;49296;48.188;11.566;2023-05-10T05:36:04;13.25;83.56
63202;DHT22;49296;48.188;11.566;2023-05-10T05:38:31;13.15;82.39
63202;DHT22;49296;48.188;11.566;2023-05-10T05:40:58;12.93;82.62
63202;DHT22;49296;48.188;11.566;2023-05-10T05:43:24;13.08;83.32
63202;DHT22;49296;48.188;11.566;2023-05-10T05:45:53;13.24;82.64
63202;DHT22;49296;48.188;11.566;2023-05-10T05:48:20;13.31;82.61
63202;DHT22;49296;48.188;11.566;2023-05-10T05:50:46;13.34;82.55
63202;DHT22;49296;48.188;11.566;2023-05-10T05:53:13;13.42;81.90
63202;DHT22;49296;48.188;11.566;2023-05-10T05:55:40;13.32;82.52
63202;DHT22;49296;48.188;11.566;2023-05-10T05:58:07;13.35;82.18
63202;DHT22;49296;48.188;11.566;2023-05-10T06:00:34;13.34;82.34
63202;DHT22;49296;48.188;11.566;2023-05-10T06:03:02;13.39;82.25
63202;DHT22;49296;48.188;11.566;2023-05-10T06:05:29;13.29;82.67
63202;DHT22;49296;48.188;11.566;2023-05-10T06:07:56;13.28;83.02
63202;DHT22;49296;48.188;11.566;2023-05-10T06:10:26;13.39;83.24
63202;DHT22;49296;48.188;11.566;2023-05-10T06:12:53;13.48;82.72
63202;DHT22;49296;48.188;11.566;2023-05-10T06:15:20;13.65;82.52
63202;DHT22;49296;48.188;11.566;2023-05-10T06:17:51;13.73;82.71
63202;DHT22;49296;48.188;11.566;2023-05-10T06:20:19;13.62;82.62
63202;DHT22;49296;48.188;11.566;2023-05-10T06:22:46;13.58;82.00
63202;DHT22;49296;48.188;11.566;2023-05-10T06:25:13;13.43;82.50
63202;DHT22;49296;48.188;11.566;2023-05-10T06:27:43;13.60;82.66
63202;DHT22;49296;48.188;11.566;2023-05-10T06:30:10;13.49;83.14
63202;DHT22;49296;48.188;11.566;2023-05-10T06:32:38;13.56;83.02
63202;DHT22;49296;48.188;11.566;2023-05-10T06:35:06;13.53;83.11
63202;DHT22;49296;48.188;11.566;2023-05-10T06:37:35;13.42;82.56
63202;DHT22;49296;48.188;11.566;2023-05-10T06:40:02;13.58;82.66
63202;DHT22;49296;48.188;11.566;2023-05-10T06:42:29;13.69;82.85
63202;DHT22;49296;48.188;11.566;2023-05-10T06:44:55;13.90;82.42
63202;DHT22;49296;48.188;11.566;2023-05-10T06:47:22;13.87;81.54
63202;DHT22;49296;48.188;11.566;2023-05-10T06:49:49;13.90;81.76
63202;DHT22;49296;48.188;11.566;2023-05-10T06:52:16;14.11;81.44
63202;DHT22;49296;48.188;11.566;2023-05-10T06:54:44;14.00;80.62
63202;DHT22;49296;48.188;11.566;2023-05-10T06:57:11;14.10;81.03
63202;DHT22;49296;48.188;11.566;2023-05-10T06:59:38;14.01;81.21
63202;DHT22;49296;48.188;11.566;2023-05-10T07:02:05;14.04;80.75
63202;DHT22;49296;48.188;11.566;2023-05-10T07:04:32;14.03;80.06
63202;DHT22;49296;48.188;11.566;2023-05-10T07:06:59;14.10;80.56
63202;DHT22;49296;48.188;11.566;2023-05-10T07:09:26;14.04;80.33
63202;DHT22;49296;48.188;11.566;2023-05-10T07:11:54;14.04;80.28
63202;DHT22;49296;48.188;11.566;2023-05-10T07:14:22;14.13;80.41
63202;DHT22;49296;48.188;11.566;2023-05-10T07:16:49;14.33;80.40
63202;DHT22;49296;48.188;11.566;2023-05-10T07:19:16;14.31;79.93
63202;DHT22;49296;48.188;11.566;2023-05-10T07:21:44;14.53;79.44
63202;DHT22;49296;48.188;11.566;2023-05-10T07:24:11;14.43;79.51
63202;DHT22;49296;48.188;11.566;2023-05-10T07:26:43;14.66;79.37
63202;DHT22;49296;48.188;11.566;2023-05-10T07:29:11;14.57;78.07
63202;DHT22;49296;48.188;11.566;2023-05-10T07:31:38;14.28;77.87
63202;DHT22;49296;48.188;11.566;2023-05-10T07:34:07;14.29;77.62
63202;DHT22;49296;48.188;11.566;2023-05-10T07:36:36;14.43;78.13
63202;DHT22;49296;48.188;11.566;2023-05-10T07:39:06;14.45;78.07
63202;DHT22;49296;48.188;11.566;2023-05-10T07:41:33;14.52;78.03
63202;DHT22;49296;48.188;11.566;2023-05-10T07:44:00;14.45;77.38
63202;DHT22;49296;48.188;11.566;2023-05-10T07:46:28;14.74;77.59
63202;DHT22;49296;48.188;11.566;2023-05-10T07:48:54;14.84;77.03
63202;DHT22;49296;48.188;11.566;2023-05-10T07:51:21;14.98;75.99
63202;DHT22;49296;48.188;11.566;2023-05-10T07:53:48;15.15;76.11
63202;DHT22;49296;48.188;11.566;2023-05-10T07:56:23;15.02;75.34
63202;DHT22;49296;48.188;11.566;2023-05-10T07:58:52;14.90;75.57
63202;DHT22;49296;48.188;11.566;2023-05-10T08:01:19;14.85;74.90
63202;DHT22;49296;48.188;11.566;2023-05-10T08:03:48;14.70;74.64
63202;DHT22;49296;48.188;11.566;2023-05-10T08:06:17;14.91;75.15
63202;DHT22;49296;48.188;11.566;2023-05-10T08:08:45;14.97;73.64
63202;DHT22;49296;48.188;11.566;2023-05-10T08:11:14;15.28;73.46
63202;DHT22;49296;48.188;11.566;2023-05-10T08:13:41;15.34;73.06
63202;DHT22;49296;48.188;11.566;2023-05-10T08:16:08;15.50;72.72
63202;DHT22;49296;48.188;11.566;2023-05-10T08:18:35;15.49;72.40
63202;DHT22;49296;48.188;11.566;2023-05-10T08:21:03;15.73;72.24
63202;DHT22;49296;48.188;11.566;2023-05-10T08:23:30;15.59;70.97
63202;DHT22;49296;48.188;11.566;2023-05-10T08:25:57;15.53;71.91
63202;DHT22;49296;48.188;11.566;2023-05-10T08:28:25;15.32;71.71
63202;DHT22;49296;48.188;11.566;2023-05-10T08:30:55;15.11;72.36
63202;DHT22;49296;48.188;11.566;2023-05-10T08:33:22;15.04;72.72
63202;DHT22;49296;48.188;11.566;2023-05-10T08:35:50;15.00;72.53
63202;DHT22;49296;48.188;11.566;2023-05-10T08:38:19;15.05;71.83
63202;DHT22;49296;48.188;11.566;2023-05-10T08:40:46;15.18;72.30
63202;DHT22;49296;48.188;11.566;2023-05-10T08:43:16;15.19;72.14
63202;DHT22;49296;48.188;11.566;2023-05-10T08:45:44;15.29;72.08
63202;DHT22;49296;48.188;11.566;2023-05-10T08:48:13;15.34;71.98
63202;DHT22;49296;48.188;11.566;2023-05-10T08:50:41;15.24;71.46
63202;DHT22;49296;48.188;11.566;2023-05-10T08:53:10;15.21;71.90
63202;DHT22;49296;48.188;11.566;2023-05-10T08:55:39;15.24;71.95
63202;DHT22;49296;48.188;11.566;2023-05-10T08:58:08;15.34;72.23
63202;DHT22;49296;48.188;11.566;2023-05-10T09:00:36;15.52;71.22
63202;DHT22;49296;48.188;11.566;2023-05-10T09:03:04;15.46;71.32
63202;DHT22;49296;48.188;11.566;2023-05-10T09:05:31;15.45;71.59
63202;DHT22;49296;48.188;11.566;2023-05-10T09:07:58;15.77;71.15
63202;DHT22;49296;48.188;11.566;2023-05-10T09:10:26;15.74;71.19
63202;DHT22;49296;48.188;11.566;2023-05-10T09:12:56;16.00;70.49
63202;DHT22;49296;48.188;11.566;2023-05-10T09:15:23;16.08;69.27
63202;DHT22;49296;48.188;11.566;2023-05-10T09:17:50;16.09;69.01
63202;DHT22;49296;48.188;11.566;2023-05-10T09:20:17;15.93;68.89
63202;DHT22;49296;48.188;11.566;2023-05-10T09:22:44;15.84;68.34
63202;DHT22;49296;48.188;11.566;2023-05-10T09:25:12;15.80;68.47
63202;DHT22;49296;48.188;11.566;2023-05-10T09:27:40;15.79;69.48
63202;DHT22;49296;48.188;11.566;2023-05-10T09:30:09;15.73;69.44
63202;DHT22;49296;48.188;11.566;2023-05-10T09:32:37;15.67;69.81
63202;DHT22;49296;48.188;11.566;2023-05-10T09:35:08;15.70;70.13
63202;DHT22;49296;48.188;11.566;2023-05-10T09:37:35;15.80;68.93
63202;DHT22;49296;48.188;11.566;2023-05-10T09:40:05;15.71;68.53
63202;DHT22;49296;48.188;11.566;2023-05-10T09:42:33;15.74;68.63
63202;DHT22;49296;48.188;11.566;2023-05-10T09:45:02;15.83;68.08
63202;DHT22;49296;48.188;11.566;2023-05-10T09:47:31;15.96;67.85
63202;DHT22;49296;48.188;11.566;2023-05-10T09:49:58;16.11;68.45
63202;DHT22;49296;48.188;11.566;2023-05-10T09:52:29;16.02;68.41
63202;DHT22;49296;48.188;11.566;2023-05-10T09:54:56;16.04;68.73
63202;DHT22;49296;48.188;11.566;2023-05-10T09:57:24;16.26;68.37
63202;DHT22;49296;48.188;11.566;2023-05-10T09:59:51;16.35;67.93
63202;DHT22;49296;48.188;11.566;2023-05-10T10:02:19;16.49;67.99
63202;DHT22;49296;48.188;11.566;2023-05-10T10:04:50;16.56;66.82
63202;DHT22;49296;48.188;11.566;2023-05-10T10:07:22;16.69;66.39
63202;DHT22;49296;48.188;11.566;2023-05-10T10:09:50;16.60;65.98
63202;DHT22;49296;48.188;11.566;2023-05-10T10:12:17;16.52;64.53
63202;DHT22;49296;48.188;11.566;2023-05-10T10:14:46;16.60;65.21
63202;DHT22;49296;48.188;11.566;2023-05-10T10:17:13;16.49;64.14
63202;DHT22;49296;48.188;11.566;2023-05-10T10:19:41;16.57;64.29
63202;DHT22;49296;48.188;11.566;2023-05-10T10:22:09;16.67;64.57
63202;DHT22;49296;48.188;11.566;2023-05-10T10:24:38;16.84;64.31
63202;DHT22;49296;48.188;11.566;2023-05-10T10:27:15;16.88;63.56
63202;DHT22;49296;48.188;11.566;2023-05-10T10:29:52;17.07;63.15
63202;DHT22;49296;48.188;11.566;2023-05-10T10:32:30;17.18;62.80
63202;DHT22;49296;48.188;11.566;2023-05-10T10:34:59;17.18;63.02
63202;DHT22;49296;48.188;11.566;2023-05-10T10:37:42;17.12;61.93
63202;DHT22;49296;48.188;11.566;2023-05-10T10:40:26;17.08;62.60
63202;DHT22;49296;48.188;11.566;2023-05-10T10:42:53;16.89;62.47
63202;DHT22;49296;48.188;11.566;2023-05-10T10:45:21;16.85;63.21
63202;DHT22;49296;48.188;11.566;2023-05-10T10:47:49;16.80;62.16
63202;DHT22;49296;48.188;11.566;2023-05-10T10:50:19;16.89;62.65
63202;DHT22;49296;48.188;11.566;2023-05-10T10:52:50;17.00;63.52
63202;DHT22;49296;48.188;11.566;2023-05-10T10:55:19;17.12;61.90
63202;DHT22;49296;48.188;11.566;2023-05-10T10:57:49;17.03;61.52
63202;DHT22;49296;48.188;11.566;2023-05-10T11:00:27;17.12;61.66
63202;DHT22;49296;48.188;11.566;2023-05-10T11:02:57;17.07;62.00
63202;DHT22;49296;48.188;11.566;2023-05-10T11:05:36;16.98;62.63
63202;DHT22;49296;48.188;11.566;2023-05-10T11:08:10;17.07;63.17
63202;DHT22;49296;48.188;11.566;2023-05-10T11:10:38;17.04;62.25
63202;DHT22;49296;48.188;11.566;2023-05-10T11:13:06;17.05;62.47
63202;DHT22;49296;48.188;11.566;2023-05-10T11:15:35;17.07;62.93
63202;DHT22;49296;48.188;11.566;2023-05-10T11:18:16;16.97;60.86
63202;DHT22;49296;48.188;11.566;2023-05-10T11:20:44;16.95;61.95
63202;DHT22;49296;48.188;11.566;2023-05-10T11:23:17;16.97;62.05
63202;DHT22;49296;48.188;11.566;2023-05-10T11:25:45;16.69;62.69
63202;DHT22;49296;48.188;11.566;2023-05-10T11:28:12;16.61;64.07
63202;DHT22;49296;48.188;11.566;2023-05-10T11:30:40;16.42;66.14
63202;DHT22;49296;48.188;11.566;2023-05-10T11:33:08;16.38;67.69
63202;DHT22;49296;48.188;11.566;2023-05-10T11:35:38;16.02;69.46
63202;DHT22;49296;48.188;11.566;2023-05-10T11:38:06;15.73;71.09
63202;DHT22;49296;48.188;11.566;2023-05-10T11:40:35;15.69;71.26
63202;DHT22;49296;48.188;11.566;2023-05-10T11:43:02;15.42;71.22
63202;DHT22;49296;48.188;11.566;2023-05-10T11:45:29;15.35;72.75
63202;DHT22;49296;48.188;11.566;2023-05-10T11:47:58;15.28;73.53
63202;DHT22;49296;48.188;11.566;2023-05-10T11:50:27;15.18;74.35
63202;DHT22;49296;48.188;11.566;2023-05-10T11:52:54;14.97;76.39
63202;DHT22;49296;48.188;11.566;2023-05-10T11:55:22;14.85;76.34
63202;DHT22;49296;48.188;11.566;2023-05-10T11:57:53;14.94;76.39
63202;DHT22;49296;48.188;11.566;2023-05-10T12:00:20;14.90;76.37
63202;DHT22;49296;48.188;11.566;2023-05-10T12:02:47;14.69;75.56
63202;DHT22;49296;48.188;11.566;2023-05-10T12:05:15;14.69;75.59
63202;DHT22;49296;48.188;11.566;2023-05-10T12:07:42;14.65;75.25
63202;DHT22;49296;48.188;11.566;2023-05-10T12:10:10;14.88;75.64
63202;DHT22;49296;48.188;11.566;2023-05-10T12:12:40;14.70;75.46
63202;DHT22;49296;48.188;11.566;2023-05-10T12:15:17;14.81;75.54
63202;DHT22;49296;48.188;11.566;2023-05-10T12:17:44;14.87;75.55
63202;DHT22;49296;48.188;11.566;2023-05-10T12:20:22;15.01;75.50
63202;DHT22;49296;48.188;11.566;2023-05-10T12:22:50;14.88;75.87
63202;DHT22;49296;48.188;11.566;2023-05-10T12:25:18;14.97;76.06
63202;DHT22;49296;48.188;11.566;2023-05-10T12:27:50;14.74;76.18
63202;DHT22;49296;48.188;11.566;2023-05-10T12:30:22;14.63;76.85
63202;DHT22;49296;48.188;11.566;2023-05-10T12:32:50;14.74;77.23
63202;DHT22;49296;48.188;11.566;2023-05-10T12:35:18;14.77;76.81
63202;DHT22;49296;48.188;11.566;2023-05-10T12:37:47;14.83;77.36
63202;DHT22;49296;48.188;11.566;2023-05-10T12:40:14;14.84;77.24
63202;DHT22;49296;48.188;11.566;2023-05-10T12:42:41;14.95;77.17
63202;DHT22;49296;48.188;11.566;2023-05-10T12:45:10;14.77;78.01
63202;DHT22;49296;48.188;11.566;2023-05-10T12:47:39;14.67;76.97
63202;DHT22;49296;48.188;11.566;2023-05-10T12:50:06;14.72;76.33
63202;DHT22;49296;48.188;11.566;2023-05-10T12:52:33;14.70;75.99
63202;DHT22;49296;48.188;11.566;2023-05-10T12:55:00;14.65;76.32
63202;DHT22;49296;48.188;11.566;2023-05-10T12:57:28;14.84;75.46
63202;DHT22;49296;48.188;11.566;2023-05-10T12:59:56;14.79;74.38
63202;DHT22;49296;48.188;11.566;2023-05-10T13:02:22;14.87;74.01
63202;DHT22;49296;48.188;11.566;2023-05-10T13:04:52;14.93;73.94
63202;DHT22;49296;48.188;11.566;2023-05-10T13:08:17;15.00;74.28
63202;DHT22;49296;48.188;11.566;2023-05-10T13:10:43;15.01;73.40
63202;DHT22;49296;48.188;11.566;2023-05-10T13:13:10;15.05;73.86
63202;DHT22;49296;48.188;11.566;2023-05-10T13:15:37;15.08;72.30
63202;DHT22;49296;48.188;11.566;2023-05-10T13:18:04;15.15;72.41
63202;DHT22;49296;48.188;11.566;2023-05-10T13:20:31;15.24;72.60
63202;DHT22;49296;48.188;11.566;2023-05-10T13:22:58;15.25;72.09
63202;DHT22;49296;48.188;11.566;2023-05-10T13:25:26;15.18;72.72
63202;DHT22;49296;48.188;11.566;2023-05-10T13:27:53;15.17;73.26
63202;DHT22;49296;48.188;11.566;2023-05-10T13:30:19;15.01;73.37
63202;DHT22;49296;48.188;11.566;2023-05-10T13:32:47;14.85;73.52
63202;DHT22;49296;48.188;11.566;2023-05-10T13:35:13;14.84;73.57
63202;DHT22;49296;48.188;11.566;2023-05-10T13:37:40;14.91;74.04
63202;DHT22;49296;48.188;11.566;2023-05-10T13:40:08;15.00;74.49
63202;DHT22;49296;48.188;11.566;2023-05-10T13:42:36;15.12;74.62
63202;DHT22;49296;48.188;11.566;2023-05-10T13:45:04;14.94;75.19
63202;DHT22;49296;48.188;11.566;2023-05-10T13:47:31;14.98;74.15
63202;DHT22;49296;48.188;11.566;2023-05-10T13:49:58;15.02;74.17
63202;DHT22;49296;48.188;11.566;2023-05-10T13:52:25;14.93;74.35
63202;DHT22;49296;48.188;11.566;2023-05-10T13:54:52;14.80;74.89
63202;DHT22;49296;48.188;11.566;2023-05-10T13:57:20;14.90;75.05
63202;DHT22;49296;48.188;11.566;2023-05-10T13:59:48;14.83;75.87
63202;DHT22;49296;48.188;11.566;2023-05-10T14:02:15;14.83;75.82
63202;DHT22;49296;48.188;11.566;2023-05-10T14:04:42;14.73;76.51
63202;DHT22;49296;48.188;11.566;2023-05-10T14:07:09;14.77;76.52
63202;DHT22;49296;48.188;11.566;2023-05-10T14:09:36;14.76;76.21
63202;DHT22;49296;48.188;11.566;2023-05-10T14:12:03;14.69;76.78
63202;DHT22;49296;48.188;11.566;2023-05-10T14:14:30;14.72;77.11
63202;DHT22;49296;48.188;11.566;2023-05-10T14:16:58;14.81;76.97
63202;DHT22;49296;48.188;11.566;2023-05-10T14:19:25;14.79;76.02
63202;DHT22;49296;48.188;11.566;2023-05-10T14:21:53;14.48;76.91
63202;DHT22;49296;48.188;11.566;2023-05-10T14:24:20;14.56;77.71
63202;DHT22;49296;48.188;11.566;2023-05-10T14:26:47;14.60;77.39
63202;DHT22;49296;48.188;11.566;2023-05-10T14:29:13;14.52;77.69
63202;DHT22;49296;48.188;11.566;2023-05-10T14:31:40;14.43;78.02
63202;DHT22;49296;48.188;11.566;2023-05-10T14:34:08;14.46;77.90
63202;DHT22;49296;48.188;11.566;2023-05-10T14:36:35;14.50;76.81
63202;DHT22;49296;48.188;11.566;2023-05-10T14:39:02;14.24;77.69
63202;DHT22;49296;48.188;11.566;2023-05-10T14:41:29;14.18;78.03
63202;DHT22;49296;48.188;11.566;2023-05-10T14:43:56;14.24;78.16
63202;DHT22;49296;48.188;11.566;2023-05-10T14:46:24;14.36;77.36
63202;DHT22;49296;48.188;11.566;2023-05-10T14:48:51;14.33;77.79
63202;DHT22;49296;48.188;11.566;2023-05-10T14:51:19;14.22;76.90
63202;DHT22;49296;48.188;11.566;2023-05-10T14:53:47;14.14;77.84
63202;DHT22;49296;48.188;11.566;2023-05-10T14:56:14;14.10;77.03
63202;DHT22;49296;48.188;11.566;2023-05-10T14:58:41;13.87;77.86
63202;DHT22;49296;48.188;11.566;2023-05-10T15:01:08;13.86;78.60
63202;DHT22;49296;48.188;11.566;2023-05-10T15:03:35;14.03;78.51
63202;DHT22;49296;48.188;11.566;2023-05-10T15:06:03;14.13;78.22
63202;DHT22;49296;48.188;11.566;2023-05-10T15:08:31;14.11;78.27
63202;DHT22;49296;48.188;11.566;2023-05-10T15:10:58;13.87;78.42
63202;DHT22;49296;48.188;11.566;2023-05-10T15:13:25;13.83;78.99
63202;DHT22;49296;48.188;11.566;2023-05-10T15:15:52;13.93;78.60
63202;DHT22;49296;48.188;11.566;2023-05-10T15:18:19;13.84;78.69
63202;DHT22;49296;48.188;11.566;2023-05-10T15:20:45;13.77;78.95
63202;DHT22;49296;48.188;11.566;2023-05-10T15:23:12;13.77;78.86
63202;DHT22;49296;48.188;11.566;2023-05-10T15:25:40;13.71;79.06